sensor_id;sensor_type;location;lat;lon;timestamp;pressure;altitude;pressure_sealevel;temperature;humidity
73629;BME280;61924;53.268;-2.458;2023-03-01T00:01:08;103259.52;;;15.84;30.81
73629;BME280;61924;53.268;-2.458;2023-03-01T00:03:31;103254.08;;;15.81;30.94
73629;BME280;61924;53.268;-2.458;2023-03-01T00:05:56;103259.86;;;15.57;30.94
73629;BME280;61924;53.268;-2.458;2023-03-01T00:08:21;103261.09;;;15.54;30.94
73629;BME280;61924;53.268;-2.458;2023-03-01T00:10:47;103259.20;;;15.48;31.02
73629;BME280;61924;53.268;-2.458;2023-03-01T00:13:12;103261.54;;;15.38;31.09
73629;BME280;61924;53.268;-2.458;2023-03-01T00:15:39;103260.96;;;15.37;31.03
73629;BME280;61924;53.268;-2.458;2023-03-01T00:18:03;103259.95;;;15.64;30.96
73629;BME280;61924;53.268;-2.458;2023-03-01T00:20:29;103260.41;;;15.56;30.91
73629;BME280;61924;53.268;-2.458;2023-03-01T00:22:54;103261.20;;;15.26;31.01
73629;BME280;61924;53.268;-2.458;2023-03-01T00:25:20;103264.93;;;15.51;31.06
73629;BME280;61924;53.268;-2.458;2023-03-01T00:27:46;103262.05;;;15.30;31.04
73629;BME280;61924;53.268;-2.458;2023-03-01T00:30:11;103256.82;;;15.22;30.98
73629;BME280;61924;53.268;-2.458;2023-03-01T00:32:36;103252.33;;;15.33;30.98
73629;BME280;61924;53.268;-2.458;2023-03-01T00:35:01;103254.92;;;15.39;31.05
73629;BME280;61924;53.268;-2.458;2023-03-01T00:37:27;103255.48;;;15.33;31.09
73629;BME280;61924;53.268;-2.458;2023-03-01T00:39:52;103249.00;;;15.36;30.99
73629;BME280;61924;53.268;-2.458;2023-03-01T00:42:18;103246.40;;;15.27;30.95
73629;BME280;61924;53.268;-2.458;2023-03-01T00:44:44;103244.42;;;15.23;31.10
73629;BME280;61924;53.268;-2.458;2023-03-01T00:47:09;103241.32;;;15.19;31.07
73629;BME280;61924;53.268;-2.458;2023-03-01T00:49:34;103242.89;;;15.36;31.07
73629;BME280;61924;53.268;-2.458;2023-03-01T00:51:59;103241.01;;;14.95;31.18
73629;BME280;61924;53.268;-2.458;2023-03-01T00:54:24;103236.30;;;15.26;30.89
73629;BME280;61924;53.268;-2.458;2023-03-01T00:56:49;103237.45;;;15.00;31.19
73629;BME280;61924;53.268;-2.458;2023-03-01T00:59:15;103233.08;;;14.93;31.23
73629;BME280;61924;53.268;-2.458;2023-03-01T01:01:40;103232.60;;;15.11;31.05
73629;BME280;61924;53.268;-2.458;2023-03-01T01:04:07;103229.06;;;15.00;31.17
73629;BME280;61924;53.268;-2.458;2023-03-01T01:06:33;103222.89;;;15.04;31.07
73629;BME280;61924;53.268;-2.458;2023-03-01T01:08:56;103224.34;;;14.74;31.15
73629;BME280;61924;53.268;-2.458;2023-03-01T01:11:26;103220.38;;;14.87;31.20
73629;BME280;61924;53.268;-2.458;2023-03-01T01:13:48;103223.25;;;14.70;31.22
73629;BME280;61924;53.268;-2.458;2023-03-01T01:16:13;103218.61;;;14.87;31.13
73629;BME280;61924;53.268;-2.458;2023-03-01T01:18:38;103218.28;;;15.01;31.23
73629;BME280;61924;53.268;-2.458;2023-03-01T01:21:06;103215.26;;;14.68;31.21
73629;BME280;61924;53.268;-2.458;2023-03-01T01:23:29;103216.98;;;14.38;31.39
73629;BME280;61924;53.268;-2.458;2023-03-01T01:25:55;103217.97;;;14.53;31.31
73629;BME280;61924;53.268;-2.458;2023-03-01T01:28:21;103218.07;;;14.79;31.24
73629;BME280;61924;53.268;-2.458;2023-03-01T01:30:46;103213.68;;;14.43;31.27
73629;BME280;61924;53.268;-2.458;2023-03-01T01:33:11;103213.94;;;14.70;31.22
73629;BME280;61924;53.268;-2.458;2023-03-01T01:35:37;103211.02;;;14.59;31.29
73629;BME280;61924;53.268;-2.458;2023-03-01T01:38:02;103209.85;;;14.33;31.31
73629;BME280;61924;53.268;-2.458;2023-03-01T01:40:28;103210.74;;;14.67;31.15
73629;BME280;61924;53.268;-2.458;2023-03-01T01:42:53;103210.23;;;14.68;31.32
73629;BME280;61924;53.268;-2.458;2023-03-01T01:45:28;103209.68;;;14.29;31.34
73629;BME280;61924;53.268;-2.458;2023-03-01T01:47:44;103208.67;;;14.31;31.39
73629;BME280;61924;53.268;-2.458;2023-03-01T01:50:16;103208.85;;;14.08;31.50
73629;BME280;61924;53.268;-2.458;2023-03-01T01:52:36;103209.02;;;14.22;31.43
73629;BME280;61924;53.268;-2.458;2023-03-01T01:55:02;103207.72;;;14.67;31.44
73629;BME280;61924;53.268;-2.458;2023-03-01T01:57:27;103207.39;;;14.25;31.42
73629;BME280;61924;53.268;-2.458;2023-03-01T01:59:53;103204.25;;;14.21;31.32
73629;BME280;61924;53.268;-2.458;2023-03-01T02:02:16;103201.86;;;14.36;31.35
73629;BME280;61924;53.268;-2.458;2023-03-01T02:04:42;103198.42;;;14.29;31.44
73629;BME280;61924;53.268;-2.458;2023-03-01T02:07:14;103194.19;;;14.28;31.38
73629;BME280;61924;53.268;-2.458;2023-03-01T02:09:33;103189.30;;;14.19;31.43
73629;BME280;61924;53.268;-2.458;2023-03-01T02:11:58;103187.73;;;14.22;31.41
73629;BME280;61924;53.268;-2.458;2023-03-01T02:14:23;103182.80;;;14.51;31.25
73629;BME280;61924;53.268;-2.458;2023-03-01T02:16:49;103179.10;;;14.11;31.45
73629;BME280;61924;53.268;-2.458;2023-03-01T02:19:23;103176.78;;;14.30;31.37
73629;BME280;61924;53.268;-2.458;2023-03-01T02:21:48;103174.28;;;14.67;31.38
73629;BME280;61924;53.268;-2.458;2023-03-01T02:24:12;103174.29;;;14.12;31.42
73629;BME280;61924;53.268;-2.458;2023-03-01T02:26:34;103167.31;;;14.33;31.51
73629;BME280;61924;53.268;-2.458;2023-03-01T02:28:56;103165.33;;;13.85;31.62
73629;BME280;61924;53.268;-2.458;2023-03-01T02:31:21;103161.24;;;14.12;31.46
73629;BME280;61924;53.268;-2.458;2023-03-01T02:33:47;103168.74;;;13.73;31.45
73629;BME280;61924;53.268;-2.458;2023-03-01T02:36:15;103166.21;;;13.61;31.67
73629;BME280;61924;53.268;-2.458;2023-03-01T02:38:38;103165.46;;;13.85;31.53
73629;BME280;61924;53.268;-2.458;2023-03-01T02:41:06;103158.79;;;13.81;31.44
73629;BME280;61924;53.268;-2.458;2023-03-01T02:43:31;103154.42;;;14.03;31.39
73629;BME280;61924;53.268;-2.458;2023-03-01T02:45:58;103155.58;;;13.86;31.54
73629;BME280;61924;53.268;-2.458;2023-03-01T02:48:20;103150.57;;;14.02;31.49
73629;BME280;61924;53.268;-2.458;2023-03-01T02:50:54;103147.33;;;13.73;31.52
73629;BME280;61924;53.268;-2.458;2023-03-01T02:53:15;103145.59;;;13.89;31.51
73629;BME280;61924;53.268;-2.458;2023-03-01T02:55:37;103143.34;;;13.77;31.64
73629;BME280;61924;53.268;-2.458;2023-03-01T02:58:03;103144.65;;;13.59;31.50
73629;BME280;61924;53.268;-2.458;2023-03-01T03:00:31;103142.85;;;13.71;31.60
73629;BME280;61924;53.268;-2.458;2023-03-01T03:02:54;103142.95;;;13.65;31.43
73629;BME280;61924;53.268;-2.458;2023-03-01T03:05:21;103139.03;;;14.06;31.54
73629;BME280;61924;53.268;-2.458;2023-03-01T03:07:45;103133.31;;;13.52;31.52
73629;BME280;61924;53.268;-2.458;2023-03-01T03:10:12;103133.82;;;13.64;31.57
73629;BME280;61924;53.268;-2.458;2023-03-01T03:12:34;103134.62;;;13.73;31.52
73629;BME280;61924;53.268;-2.458;2023-03-01T03:14:59;103132.72;;;14.18;31.40
73629;BME280;61924;53.268;-2.458;2023-03-01T03:17:25;103133.96;;;13.09;31.77
73629;BME280;61924;53.268;-2.458;2023-03-01T03:19:50;103133.12;;;13.91;31.46
73629;BME280;61924;53.268;-2.458;2023-03-01T03:22:16;103134.49;;;13.72;31.50
73629;BME280;61924;53.268;-2.458;2023-03-01T03:24:41;103131.51;;;14.13;31.05
73629;BME280;61924;53.268;-2.458;2023-03-01T03:27:08;103130.80;;;13.69;31.67
73629;BME280;61924;53.268;-2.458;2023-03-01T03:29:32;103124.05;;;13.55;31.73
73629;BME280;61924;53.268;-2.458;2023-03-01T03:31:57;103123.14;;;13.65;31.84
73629;BME280;61924;53.268;-2.458;2023-03-01T03:34:23;103126.97;;;13.04;31.71
73629;BME280;61924;53.268;-2.458;2023-03-01T03:36:52;103125.72;;;13.68;31.72
73629;BME280;61924;53.268;-2.458;2023-03-01T03:39:14;103127.17;;;13.45;31.72
73629;BME280;61924;53.268;-2.458;2023-03-01T03:41:39;103126.52;;;13.59;31.74
73629;BME280;61924;53.268;-2.458;2023-03-01T03:44:04;103126.53;;;13.28;31.86
73629;BME280;61924;53.268;-2.458;2023-03-01T03:46:30;103125.07;;;13.57;31.69
73629;BME280;61924;53.268;-2.458;2023-03-01T03:48:56;103123.84;;;13.40;31.70
73629;BME280;61924;53.268;-2.458;2023-03-01T03:51:21;103120.24;;;13.43;31.74
73629;BME280;61924;53.268;-2.458;2023-03-01T03:53:46;103115.63;;;13.09;31.76
73629;BME280;61924;53.268;-2.458;2023-03-01T03:56:12;103108.31;;;13.38;31.60
73629;BME280;61924;53.268;-2.458;2023-03-01T03:58:38;103105.90;;;13.48;31.72
73629;BME280;61924;53.268;-2.458;2023-03-01T04:01:04;103103.64;;;13.31;31.71
73629;BME280;61924;53.268;-2.458;2023-03-01T04:03:30;103101.35;;;13.24;31.69
73629;BME280;61924;53.268;-2.458;2023-03-01T04:05:57;103099.89;;;13.39;31.79
73629;BME280;61924;53.268;-2.458;2023-03-01T04:08:22;103101.79;;;13.26;31.85
73629;BME280;61924;53.268;-2.458;2023-03-01T04:10:48;103100.03;;;13.43;31.67
73629;BME280;61924;53.268;-2.458;2023-03-01T04:13:13;103100.03;;;13.11;31.78
73629;BME280;61924;53.268;-2.458;2023-03-01T04:15:37;103097.26;;;12.85;31.86
73629;BME280;61924;53.268;-2.458;2023-03-01T04:18:02;103095.76;;;12.89;31.82
73629;BME280;61924;53.268;-2.458;2023-03-01T04:20:29;103090.29;;;13.17;31.83
73629;BME280;61924;53.268;-2.458;2023-03-01T04:22:57;103092.82;;;13.18;31.78
73629;BME280;61924;53.268;-2.458;2023-03-01T04:25:18;103088.92;;;13.05;31.83
73629;BME280;61924;53.268;-2.458;2023-03-01T04:27:44;103089.91;;;13.22;31.75
73629;BME280;61924;53.268;-2.458;2023-03-01T04:30:10;103090.83;;;12.98;31.90
73629;BME280;61924;53.268;-2.458;2023-03-01T04:32:36;103089.35;;;13.48;31.67
73629;BME280;61924;53.268;-2.458;2023-03-01T04:35:00;103085.14;;;13.10;31.80
73629;BME280;61924;53.268;-2.458;2023-03-01T04:37:26;103083.27;;;12.95;31.75
73629;BME280;61924;53.268;-2.458;2023-03-01T04:39:51;103071.89;;;13.12;31.70
73629;BME280;61924;53.268;-2.458;2023-03-01T04:42:17;103070.96;;;13.25;31.70
73629;BME280;61924;53.268;-2.458;2023-03-01T04:44:42;103072.32;;;13.34;31.54
73629;BME280;61924;53.268;-2.458;2023-03-01T04:47:08;103067.71;;;12.72;31.84
73629;BME280;61924;53.268;-2.458;2023-03-01T04:49:33;103058.16;;;13.21;31.71
73629;BME280;61924;53.268;-2.458;2023-03-01T04:51:59;103055.32;;;12.93;31.79
73629;BME280;61924;53.268;-2.458;2023-03-01T04:54:24;103061.87;;;12.83;31.87
73629;BME280;61924;53.268;-2.458;2023-03-01T04:56:50;103065.76;;;12.99;31.79
73629;BME280;61924;53.268;-2.458;2023-03-01T04:59:15;103064.95;;;13.35;31.64
73629;BME280;61924;53.268;-2.458;2023-03-01T05:01:41;103069.83;;;12.74;31.74
73629;BME280;61924;53.268;-2.458;2023-03-01T05:04:06;103075.35;;;12.72;31.85
73629;BME280;61924;53.268;-2.458;2023-03-01T05:06:31;103072.20;;;12.90;31.73
73629;BME280;61924;53.268;-2.458;2023-03-01T05:08:57;103078.02;;;12.99;31.73
73629;BME280;61924;53.268;-2.458;2023-03-01T05:11:22;103080.51;;;12.52;31.82
73629;BME280;61924;53.268;-2.458;2023-03-01T05:13:48;103083.18;;;12.77;31.72
73629;BME280;61924;53.268;-2.458;2023-03-01T05:16:13;103082.47;;;13.74;31.14
73629;BME280;61924;53.268;-2.458;2023-03-01T05:18:39;103084.68;;;14.22;30.77
73629;BME280;61924;53.268;-2.458;2023-03-01T05:21:06;103077.93;;;13.95;30.98
73629;BME280;61924;53.268;-2.458;2023-03-01T05:23:29;103074.50;;;14.24;30.70
73629;BME280;61924;53.268;-2.458;2023-03-01T05:25:57;103072.70;;;14.50;30.32
73629;BME280;61924;53.268;-2.458;2023-03-01T05:28:20;103072.49;;;14.58;30.16
73629;BME280;61924;53.268;-2.458;2023-03-01T05:30:47;103067.77;;;14.24;30.15
73629;BME280;61924;53.268;-2.458;2023-03-01T05:33:11;103067.25;;;14.08;30.11
73629;BME280;61924;53.268;-2.458;2023-03-01T05:35:36;103062.41;;;14.46;29.96
73629;BME280;61924;53.268;-2.458;2023-03-01T05:38:02;103062.42;;;14.35;30.17
73629;BME280;61924;53.268;-2.458;2023-03-01T05:40:28;103060.30;;;14.72;29.89
73629;BME280;61924;53.268;-2.458;2023-03-01T05:42:54;103058.51;;;14.64;30.03
73629;BME280;61924;53.268;-2.458;2023-03-01T05:45:19;103059.33;;;14.78;29.90
73629;BME280;61924;53.268;-2.458;2023-03-01T05:47:45;103055.51;;;14.68;29.95
73629;BME280;61924;53.268;-2.458;2023-03-01T05:50:12;103055.22;;;14.68;29.78
73629;BME280;61924;53.268;-2.458;2023-03-01T05:52:34;103058.74;;;14.61;29.93
73629;BME280;61924;53.268;-2.458;2023-03-01T05:55:00;103061.25;;;14.41;29.91
73629;BME280;61924;53.268;-2.458;2023-03-01T05:57:25;103056.81;;;14.63;29.84
73629;BME280;61924;53.268;-2.458;2023-03-01T05:59:50;103058.24;;;14.54;29.77
73629;BME280;61924;53.268;-2.458;2023-03-01T06:02:16;103061.75;;;14.69;29.83
73629;BME280;61924;53.268;-2.458;2023-03-01T06:04:41;103067.61;;;14.62;29.83
73629;BME280;61924;53.268;-2.458;2023-03-01T06:07:07;103067.53;;;14.54;29.92
73629;BME280;61924;53.268;-2.458;2023-03-01T06:09:32;103071.40;;;14.45;30.00
73629;BME280;61924;53.268;-2.458;2023-03-01T06:11:58;103072.32;;;14.42;29.88
73629;BME280;61924;53.268;-2.458;2023-03-01T06:14:23;103075.89;;;14.56;29.82
73629;BME280;61924;53.268;-2.458;2023-03-01T06:16:49;103074.44;;;14.57;29.83
73629;BME280;61924;53.268;-2.458;2023-03-01T06:19:15;103073.85;;;14.77;29.84
73629;BME280;61924;53.268;-2.458;2023-03-01T06:21:40;103076.69;;;14.73;29.78
73629;BME280;61924;53.268;-2.458;2023-03-01T06:24:06;103078.42;;;14.88;29.79
73629;BME280;61924;53.268;-2.458;2023-03-01T06:26:31;103079.45;;;14.92;29.80
73629;BME280;61924;53.268;-2.458;2023-03-01T06:28:56;103082.51;;;14.82;29.72
73629;BME280;61924;53.268;-2.458;2023-03-01T06:31:22;103088.01;;;14.74;29.82
73629;BME280;61924;53.268;-2.458;2023-03-01T06:33:47;103086.71;;;15.09;29.62
73629;BME280;61924;53.268;-2.458;2023-03-01T06:36:13;103087.78;;;15.06;29.66
73629;BME280;61924;53.268;-2.458;2023-03-01T06:38:38;103083.08;;;14.65;29.86
73629;BME280;61924;53.268;-2.458;2023-03-01T06:41:04;103080.95;;;14.32;29.92
73629;BME280;61924;53.268;-2.458;2023-03-01T06:43:29;103078.97;;;14.51;30.09
73629;BME280;61924;53.268;-2.458;2023-03-01T06:45:55;103082.81;;;14.38;30.10
73629;BME280;61924;53.268;-2.458;2023-03-01T06:48:21;103083.86;;;14.25;30.21
73629;BME280;61924;53.268;-2.458;2023-03-01T06:50:46;103085.80;;;14.55;30.25
73629;BME280;61924;53.268;-2.458;2023-03-01T06:53:11;103087.64;;;14.31;30.36
73629;BME280;61924;53.268;-2.458;2023-03-01T06:55:37;103084.59;;;14.08;30.42
73629;BME280;61924;53.268;-2.458;2023-03-01T06:58:03;103082.80;;;14.71;30.03
73629;BME280;61924;53.268;-2.458;2023-03-01T07:00:27;103082.91;;;14.79;29.85
73629;BME280;61924;53.268;-2.458;2023-03-01T07:02:54;103081.62;;;14.44;29.96
73629;BME280;61924;53.268;-2.458;2023-03-01T07:05:18;103076.45;;;14.45;29.68
73629;BME280;61924;53.268;-2.458;2023-03-01T07:07:43;103072.59;;;14.45;29.55
73629;BME280;61924;53.268;-2.458;2023-03-01T07:10:10;103075.31;;;15.03;29.17
73629;BME280;61924;53.268;-2.458;2023-03-01T07:12:34;103072.62;;;14.39;29.41
73629;BME280;61924;53.268;-2.458;2023-03-01T07:14:59;103073.95;;;14.60;29.18
73629;BME280;61924;53.268;-2.458;2023-03-01T07:17:24;103075.10;;;14.74;29.15
73629;BME280;61924;53.268;-2.458;2023-03-01T07:19:49;103073.66;;;14.77;28.91
73629;BME280;61924;53.268;-2.458;2023-03-01T07:22:15;103076.47;;;14.76;28.83
73629;BME280;61924;53.268;-2.458;2023-03-01T07:24:41;103080.10;;;15.20;28.53
73629;BME280;61924;53.268;-2.458;2023-03-01T07:27:06;103082.96;;;15.20;28.65
73629;BME280;61924;53.268;-2.458;2023-03-01T07:29:31;103081.05;;;14.93;28.78
73629;BME280;61924;53.268;-2.458;2023-03-01T07:31:57;103078.56;;;15.07;28.62
73629;BME280;61924;53.268;-2.458;2023-03-01T07:34:23;103080.55;;;14.84;28.74
73629;BME280;61924;53.268;-2.458;2023-03-01T07:36:48;103083.78;;;14.71;28.93
73629;BME280;61924;53.268;-2.458;2023-03-01T07:39:13;103083.96;;;14.70;28.85
73629;BME280;61924;53.268;-2.458;2023-03-01T07:41:39;103083.32;;;14.62;28.61
73629;BME280;61924;53.268;-2.458;2023-03-01T07:44:05;103086.44;;;15.14;28.37
73629;BME280;61924;53.268;-2.458;2023-03-01T07:46:30;103086.54;;;14.81;28.08
73629;BME280;61924;53.268;-2.458;2023-03-01T07:48:55;103088.81;;;14.95;27.94
73629;BME280;61924;53.268;-2.458;2023-03-01T07:51:21;103090.77;;;15.73;28.02
73629;BME280;61924;53.268;-2.458;2023-03-01T07:53:46;103087.52;;;15.37;28.58
73629;BME280;61924;53.268;-2.458;2023-03-01T07:56:13;103084.39;;;15.82;28.74
73629;BME280;61924;53.268;-2.458;2023-03-01T07:58:39;103086.17;;;15.01;29.17
73629;BME280;61924;53.268;-2.458;2023-03-01T08:01:05;103089.07;;;15.03;29.16
73629;BME280;61924;53.268;-2.458;2023-03-01T08:03:29;103089.39;;;14.87;29.25
73629;BME280;61924;53.268;-2.458;2023-03-01T08:05:55;103090.21;;;15.07;30.42
73629;BME280;61924;53.268;-2.458;2023-03-01T08:08:20;103087.98;;;15.37;31.01
73629;BME280;61924;53.268;-2.458;2023-03-01T08:10:46;103088.17;;;15.43;30.46
73629;BME280;61924;53.268;-2.458;2023-03-01T08:13:11;103085.13;;;15.23;30.28
73629;BME280;61924;53.268;-2.458;2023-03-01T08:15:37;103090.68;;;15.08;30.18
73629;BME280;61924;53.268;-2.458;2023-03-01T08:18:03;103094.64;;;15.40;30.00
73629;BME280;61924;53.268;-2.458;2023-03-01T08:20:28;103094.43;;;15.75;29.82
73629;BME280;61924;53.268;-2.458;2023-03-01T08:22:54;103095.59;;;15.35;30.03
73629;BME280;61924;53.268;-2.458;2023-03-01T08:25:19;103092.04;;;15.61;29.76
73629;BME280;61924;53.268;-2.458;2023-03-01T08:27:44;103091.94;;;15.47;29.91
73629;BME280;61924;53.268;-2.458;2023-03-01T08:30:11;103089.21;;;15.59;29.83
73629;BME280;61924;53.268;-2.458;2023-03-01T08:32:37;103089.15;;;15.70;29.78
73629;BME280;61924;53.268;-2.458;2023-03-01T08:35:00;103090.51;;;15.30;29.88
73629;BME280;61924;53.268;-2.458;2023-03-01T08:37:25;103088.20;;;15.22;29.91
73629;BME280;61924;53.268;-2.458;2023-03-01T08:39:51;103085.85;;;15.62;29.67
73629;BME280;61924;53.268;-2.458;2023-03-01T08:42:16;103084.13;;;15.59;29.73
73629;BME280;61924;53.268;-2.458;2023-03-01T08:44:41;103082.05;;;15.84;29.64
73629;BME280;61924;53.268;-2.458;2023-03-01T08:47:07;103075.70;;;15.43;29.74
73629;BME280;61924;53.268;-2.458;2023-03-01T08:49:32;103077.21;;;15.68;29.68
73629;BME280;61924;53.268;-2.458;2023-03-01T08:51:58;103079.28;;;15.39;29.90
73629;BME280;61924;53.268;-2.458;2023-03-01T08:54:23;103079.35;;;15.41;29.85
73629;BME280;61924;53.268;-2.458;2023-03-01T08:56:49;103077.87;;;15.69;29.63
73629;BME280;61924;53.268;-2.458;2023-03-01T08:59:15;103079.00;;;15.80;29.60
73629;BME280;61924;53.268;-2.458;2023-03-01T09:01:40;103080.88;;;15.70;29.73
73629;BME280;61924;53.268;-2.458;2023-03-01T09:04:05;103082.97;;;15.32;29.91
73629;BME280;61924;53.268;-2.458;2023-03-01T09:06:30;103077.71;;;15.46;29.85
73629;BME280;61924;53.268;-2.458;2023-03-01T09:08:55;103078.27;;;15.29;30.32
73629;BME280;61924;53.268;-2.458;2023-03-01T09:11:22;103081.59;;;16.02;30.67
73629;BME280;61924;53.268;-2.458;2023-03-01T09:13:48;103080.06;;;15.85;31.58
73629;BME280;61924;53.268;-2.458;2023-03-01T09:16:14;103082.21;;;15.84;33.62
73629;BME280;61924;53.268;-2.458;2023-03-01T09:18:38;103081.03;;;16.07;32.86
73629;BME280;61924;53.268;-2.458;2023-03-01T09:21:05;103081.46;;;15.82;32.53
73629;BME280;61924;53.268;-2.458;2023-03-01T09:23:29;103080.98;;;15.66;32.35
73629;BME280;61924;53.268;-2.458;2023-03-01T09:25:54;103084.38;;;15.37;32.47
73629;BME280;61924;53.268;-2.458;2023-03-01T09:28:20;103082.78;;;15.78;32.36
73629;BME280;61924;53.268;-2.458;2023-03-01T09:30:45;103079.97;;;15.83;32.32
73629;BME280;61924;53.268;-2.458;2023-03-01T09:33:10;103081.14;;;15.62;32.20
73629;BME280;61924;53.268;-2.458;2023-03-01T09:35:35;103079.28;;;15.76;32.10
73629;BME280;61924;53.268;-2.458;2023-03-01T09:38:01;103080.73;;;15.52;32.09
73629;BME280;61924;53.268;-2.458;2023-03-01T09:40:28;103076.41;;;15.92;31.80
73629;BME280;61924;53.268;-2.458;2023-03-01T09:42:56;103072.59;;;15.93;31.77
73629;BME280;61924;53.268;-2.458;2023-03-01T09:45:26;103070.05;;;16.06;31.57
73629;BME280;61924;53.268;-2.458;2023-03-01T09:47:42;103068.25;;;15.82;31.72
73629;BME280;61924;53.268;-2.458;2023-03-01T09:50:12;103073.24;;;15.59;31.66
73629;BME280;61924;53.268;-2.458;2023-03-01T09:52:38;103074.90;;;16.00;31.45
73629;BME280;61924;53.268;-2.458;2023-03-01T09:54:58;103070.03;;;15.77;31.53
73629;BME280;61924;53.268;-2.458;2023-03-01T09:57:30;103068.85;;;15.58;31.51
73629;BME280;61924;53.268;-2.458;2023-03-01T10:00:00;103064.60;;;15.54;31.75
73629;BME280;61924;53.268;-2.458;2023-03-01T10:02:24;103062.84;;;15.81;31.59
73629;BME280;61924;53.268;-2.458;2023-03-01T10:04:46;103060.35;;;15.64;31.75
73629;BME280;61924;53.268;-2.458;2023-03-01T10:07:17;103055.91;;;15.51;31.66
73629;BME280;61924;53.268;-2.458;2023-03-01T10:09:34;103054.23;;;15.62;31.57
73629;BME280;61924;53.268;-2.458;2023-03-01T10:11:56;103052.15;;;15.50;31.59
73629;BME280;61924;53.268;-2.458;2023-03-01T10:14:29;103046.24;;;15.98;31.44
73629;BME280;61924;53.268;-2.458;2023-03-01T10:16:51;103043.66;;;15.66;31.60
73629;BME280;61924;53.268;-2.458;2023-03-01T10:19:20;103038.47;;;15.77;31.58
73629;BME280;61924;53.268;-2.458;2023-03-01T10:21:43;103034.92;;;15.41;31.67
73629;BME280;61924;53.268;-2.458;2023-03-01T10:24:10;103032.85;;;15.82;31.50
73629;BME280;61924;53.268;-2.458;2023-03-01T10:26:40;103029.20;;;15.49;31.63
73629;BME280;61924;53.268;-2.458;2023-03-01T10:29:02;103019.31;;;15.29;31.46
73629;BME280;61924;53.268;-2.458;2023-03-01T10:31:23;103011.00;;;15.74;31.44
73629;BME280;61924;53.268;-2.458;2023-03-01T10:33:46;103011.36;;;15.73;31.44
73629;BME280;61924;53.268;-2.458;2023-03-01T10:36:11;103006.02;;;15.71;31.36
73629;BME280;61924;53.268;-2.458;2023-03-01T10:38:48;103007.22;;;15.84;31.31
73629;BME280;61924;53.268;-2.458;2023-03-01T10:41:06;102998.08;;;15.88;31.33
73629;BME280;61924;53.268;-2.458;2023-03-01T10:43:40;102991.23;;;15.98;31.34
73629;BME280;61924;53.268;-2.458;2023-03-01T10:45:53;102985.90;;;15.80;31.42
73629;BME280;61924;53.268;-2.458;2023-03-01T10:48:20;102985.40;;;15.40;31.31
73629;BME280;61924;53.268;-2.458;2023-03-01T10:50:45;102985.28;;;16.00;31.19
73629;BME280;61924;53.268;-2.458;2023-03-01T10:53:22;102984.16;;;15.49;31.13
73629;BME280;61924;53.268;-2.458;2023-03-01T10:55:36;102986.09;;;15.47;31.21
73629;BME280;61924;53.268;-2.458;2023-03-01T10:58:16;102988.22;;;16.03;31.01
73629;BME280;61924;53.268;-2.458;2023-03-01T11:00:26;102987.92;;;15.56;31.18
73629;BME280;61924;53.268;-2.458;2023-03-01T11:03:04;102985.75;;;15.85;31.09
73629;BME280;61924;53.268;-2.458;2023-03-01T11:05:20;102983.56;;;15.75;31.16
73629;BME280;61924;53.268;-2.458;2023-03-01T11:07:48;102980.72;;;15.25;31.18
73629;BME280;61924;53.268;-2.458;2023-03-01T11:10:12;102977.81;;;15.66;31.08
73629;BME280;61924;53.268;-2.458;2023-03-01T11:12:33;102979.68;;;15.61;31.08
73629;BME280;61924;53.268;-2.458;2023-03-01T11:14:58;102974.17;;;15.75;31.02
73629;BME280;61924;53.268;-2.458;2023-03-01T11:17:27;102976.60;;;15.58;30.99
73629;BME280;61924;53.268;-2.458;2023-03-01T11:20:00;102974.11;;;14.99;31.07
73629;BME280;61924;53.268;-2.458;2023-03-01T11:22:19;102975.84;;;15.16;31.19
73629;BME280;61924;53.268;-2.458;2023-03-01T11:24:42;102974.23;;;15.81;30.95
73629;BME280;61924;53.268;-2.458;2023-03-01T11:27:15;102973.11;;;15.46;30.95
73629;BME280;61924;53.268;-2.458;2023-03-01T11:29:37;102969.10;;;15.52;31.08
73629;BME280;61924;53.268;-2.458;2023-03-01T11:32:01;102965.58;;;15.53;30.95
73629;BME280;61924;53.268;-2.458;2023-03-01T11:34:33;102964.03;;;15.49;31.03
73629;BME280;61924;53.268;-2.458;2023-03-01T11:36:51;102961.48;;;15.87;30.87
73629;BME280;61924;53.268;-2.458;2023-03-01T11:39:22;102958.34;;;15.58;30.83
73629;BME280;61924;53.268;-2.458;2023-03-01T11:41:39;102951.34;;;15.68;30.81
73629;BME280;61924;53.268;-2.458;2023-03-01T11:44:11;102952.49;;;15.53;30.85
73629;BME280;61924;53.268;-2.458;2023-03-01T11:46:47;102948.59;;;15.70;30.88
73629;BME280;61924;53.268;-2.458;2023-03-01T11:49:00;102946.37;;;15.01;31.27
73629;BME280;61924;53.268;-2.458;2023-03-01T11:51:24;102942.10;;;15.18;31.16
73629;BME280;61924;53.268;-2.458;2023-03-01T11:53:56;102939.67;;;15.55;30.94
73629;BME280;61924;53.268;-2.458;2023-03-01T11:56:20;102937.47;;;15.38;31.00
73629;BME280;61924;53.268;-2.458;2023-03-01T11:58:45;102939.82;;;15.24;31.05
73629;BME280;61924;53.268;-2.458;2023-03-01T12:01:09;102933.29;;;15.66;30.81
73629;BME280;61924;53.268;-2.458;2023-03-01T12:03:30;102934.19;;;15.35;30.92
73629;BME280;61924;53.268;-2.458;2023-03-01T12:06:18;102934.19;;;15.45;30.90
73629;BME280;61924;53.268;-2.458;2023-03-01T12:08:20;102934.02;;;15.38;30.92
73629;BME280;61924;53.268;-2.458;2023-03-01T12:10:47;102923.81;;;15.05;31.06
73629;BME280;61924;53.268;-2.458;2023-03-01T12:13:21;102917.74;;;15.37;30.89
73629;BME280;61924;53.268;-2.458;2023-03-01T12:15:45;102915.50;;;15.38;31.04
73629;BME280;61924;53.268;-2.458;2023-03-01T12:18:07;102910.46;;;15.02;31.28
73629;BME280;61924;53.268;-2.458;2023-03-01T12:20:28;102910.63;;;14.91;31.28
73629;BME280;61924;53.268;-2.458;2023-03-01T12:23:02;102900.60;;;15.18;31.07
73629;BME280;61924;53.268;-2.458;2023-03-01T12:25:19;102900.46;;;15.32;31.03
73629;BME280;61924;53.268;-2.458;2023-03-01T12:29:54;102895.69;;;15.30;31.43
73629;BME280;61924;53.268;-2.458;2023-03-01T12:32:28;102889.02;;;14.76;31.63